sensor_id;sensor_type;location;lat;lon;timestamp;temperature;humidity
25504;DHT22;13410;52.114;5.718;2024-01-15T00:00:13;6.60;99.90
25504;DHT22;13410;52.114;5.718;2024-01-15T00:02:39;6.50;99.90
25504;DHT22;13410;52.114;5.718;2024-01-15T00:05:04;6.50;99.90
25504;DHT22;13410;52.114;5.718;2024-01-15T00:07:30;6.50;99.90
25504;DHT22;13410;52.114;5.718;2024-01-15T00:09:56;6.50;99.90
25504;DHT22;13410;52.114;5.718;2024-01-15T00:12:21;6.50;99.90
25504;DHT22;13410;52.114;5.718;2024-01-15T00:14:48;6.70;99.90
25504;DHT22;13410;52.114;5.718;2024-01-15T00:17:15;6.50;99.90
25504;DHT22;13410;52.114;5.718;2024-01-15T00:19:41;6.60;99.90
25504;DHT22;13410;52.114;5.718;2024-01-15T00:22:06;6.60;99.90
25504;DHT22;13410;52.114;5.718;2024-01-15T00:24:32;6.60;99.90
25504;DHT22;13410;52.114;5.718;2024-01-15T00:26:57;6.40;99.90
25504;DHT22;13410;52.114;5.718;2024-01-15T00:29:23;6.40;99.90
25504;DHT22;13410;52.114;5.718;2024-01-15T00:31:49;6.40;99.90
25504;DHT22;13410;52.114;5.718;2024-01-15T00:34:14;6.40;99.90
25504;DHT22;13410;52.114;5.718;2024-01-15T00:36:40;6.20;99.90
25504;DHT22;13410;52.114;5.718;2024-01-15T00:39:06;6.40;99.90
25504;DHT22;13410;52.114;5.718;2024-01-15T00:41:31;6.40;99.90
25504;DHT22;13410;52.114;5.718;2024-01-15T00:43:57;6.40;99.90
25504;DHT22;13410;52.114;5.718;2024-01-15T00:46:23;6.30;99.90
25504;DHT22;13410;52.114;5.718;2024-01-15T00:48:48;6.40;99.90
25504;DHT22;13410;52.114;5.718;2024-01-15T00:51:14;6.40;99.90
25504;DHT22;13410;52.114;5.718;2024-01-15T00:53:40;6.30;99.90
25504;DHT22;13410;52.114;5.718;2024-01-15T00:56:06;6.20;99.90
25504;DHT22;13410;52.114;5.718;2024-01-15T00:58:31;6.20;99.90
25504;DHT22;13410;52.114;5.718;2024-01-15T01:00:57;6.10;99.90
25504;DHT22;13410;52.114;5.718;2024-01-15T01:03:23;6.10;99.90
25504;DHT22;13410;52.114;5.718;2024-01-15T01:05:49;6.10;99.90
25504;DHT22;13410;52.114;5.718;2024-01-15T01:08:18;6.10;99.90
25504;DHT22;13410;52.114;5.718;2024-01-15T01:10:43;6.10;99.90
25504;DHT22;13410;52.114;5.718;2024-01-15T01:13:09;6.10;99.90
25504;DHT22;13410;52.114;5.718;2024-01-15T01:15:35;6.20;99.90
25504;DHT22;13410;52.114;5.718;2024-01-15T01:18:00;6.10;99.90
25504;DHT22;13410;52.114;5.718;2024-01-15T01:20:26;6.00;99.90
25504;DHT22;13410;52.114;5.718;2024-01-15T01:22:52;6.00;99.90
25504;DHT22;13410;52.114;5.718;2024-01-15T01:25:17;6.10;99.90
25504;DHT22;13410;52.114;5.718;2024-01-15T01:27:43;6.10;99.90
25504;DHT22;13410;52.114;5.718;2024-01-15T01:30:09;6.00;99.90
25504;DHT22;13410;52.114;5.718;2024-01-15T01:32:35;5.90;99.90
25504;DHT22;13410;52.114;5.718;2024-01-15T01:35:01;5.90;99.90
25504;DHT22;13410;52.114;5.718;2024-01-15T01:37:26;5.90;99.90
25504;DHT22;13410;52.114;5.718;2024-01-15T01:39:52;5.90;99.90
25504;DHT22;13410;52.114;5.718;2024-01-15T01:42:17;5.90;99.90
25504;DHT22;13410;52.114;5.718;2024-01-15T01:44:43;6.10;99.90
25504;DHT22;13410;52.114;5.718;2024-01-15T01:47:09;5.80;99.90
25504;DHT22;13410;52.114;5.718;2024-01-15T01:49:35;5.90;99.90
25504;DHT22;13410;52.114;5.718;2024-01-15T01:52:02;5.90;99.90
25504;DHT22;13410;52.114;5.718;2024-01-15T01:54:32;5.90;99.90
25504;DHT22;13410;52.114;5.718;2024-01-15T01:56:58;5.90;99.90
25504;DHT22;13410;52.114;5.718;2024-01-15T01:59:27;5.90;99.90
25504;DHT22;13410;52.114;5.718;2024-01-15T02:01:54;5.80;99.90
25504;DHT22;13410;52.114;5.718;2024-01-15T02:04:20;5.80;99.90
25504;DHT22;13410;52.114;5.718;2024-01-15T02:06:48;5.90;99.90
25504;DHT22;13410;52.114;5.718;2024-01-15T02:09:14;5.90;99.90
25504;DHT22;13410;52.114;5.718;2024-01-15T02:11:41;5.90;99.90
25504;DHT22;13410;52.114;5.718;2024-01-15T02:14:08;5.90;99.90
25504;DHT22;13410;52.114;5.718;2024-01-15T02:16:34;5.90;99.90
25504;DHT22;13410;52.114;5.718;2024-01-15T02:19:00;5.80;99.90
25504;DHT22;13410;52.114;5.718;2024-01-15T02:21:25;5.80;99.90
25504;DHT22;13410;52.114;5.718;2024-01-15T02:23:56;5.80;99.90
25504;DHT22;13410;52.114;5.718;2024-01-15T02:26:23;5.90;99.90
25504;DHT22;13410;52.114;5.718;2024-01-15T02:28:49;5.90;99.90
25504;DHT22;13410;52.114;5.718;2024-01-15T02:31:15;6.00;99.90
25504;DHT22;13410;52.114;5.718;2024-01-15T02:33:42;5.60;99.90
25504;DHT22;13410;52.114;5.718;2024-01-15T02:36:08;5.50;99.90
25504;DHT22;13410;52.114;5.718;2024-01-15T02:38:34;5.50;99.90
25504;DHT22;13410;52.114;5.718;2024-01-15T02:41:00;5.30;99.90
25504;DHT22;13410;52.114;5.718;2024-01-15T02:43:25;5.10;99.90
25504;DHT22;13410;52.114;5.718;2024-01-15T02:45:51;4.90;99.90
25504;DHT22;13410;52.114;5.718;2024-01-15T02:48:16;5.00;99.90
25504;DHT22;13410;52.114;5.718;2024-01-15T02:50:42;5.10;99.90
25504;DHT22;13410;52.114;5.718;2024-01-15T02:53:08;5.20;99.90
25504;DHT22;13410;52.114;5.718;2024-01-15T02:55:33;5.30;99.90
25504;DHT22;13410;52.114;5.718;2024-01-15T02:57:59;5.40;99.90
25504;DHT22;13410;52.114;5.718;2024-01-15T03:00:25;5.40;99.90
25504;DHT22;13410;52.114;5.718;2024-01-15T03:02:51;5.50;99.90
25504;DHT22;13410;52.114;5.718;2024-01-15T03:05:16;5.40;99.90
25504;DHT22;13410;52.114;5.718;2024-01-15T03:07:42;5.50;99.90
25504;DHT22;13410;52.114;5.718;2024-01-15T03:10:09;5.60;99.90
25504;DHT22;13410;52.114;5.718;2024-01-15T03:12:35;5.60;99.90
25504;DHT22;13410;52.114;5.718;2024-01-15T03:15:00;5.50;99.90
25504;DHT22;13410;52.114;5.718;2024-01-15T03:17:26;5.50;99.90
25504;DHT22;13410;52.114;5.718;2024-01-15T03:19:52;5.50;99.90
25504;DHT22;13410;52.114;5.718;2024-01-15T03:22:17;5.50;99.90
25504;DHT22;13410;52.114;5.718;2024-01-15T03:24:43;5.60;99.90
25504;DHT22;13410;52.114;5.718;2024-01-15T03:27:09;5.50;99.90
25504;DHT22;13410;52.114;5.718;2024-01-15T03:29:35;5.60;99.90
25504;DHT22;13410;52.114;5.718;2024-01-15T03:32:00;5.70;99.90
25504;DHT22;13410;52.114;5.718;2024-01-15T03:34:26;5.80;99.90
25504;DHT22;13410;52.114;5.718;2024-01-15T03:36:51;5.80;99.90
25504;DHT22;13410;52.114;5.718;2024-01-15T03:39:17;6.00;99.90
25504;DHT22;13410;52.114;5.718;2024-01-15T03:41:43;6.00;99.90
25504;DHT22;13410;52.114;5.718;2024-01-15T03:44:08;5.90;99.90
25504;DHT22;13410;52.114;5.718;2024-01-15T03:46:34;5.70;99.90
25504;DHT22;13410;52.114;5.718;2024-01-15T03:48:59;5.70;99.90
25504;DHT22;13410;52.114;5.718;2024-01-15T03:51:25;5.60;99.90
25504;DHT22;13410;52.114;5.718;2024-01-15T03:53:50;5.80;99.90
25504;DHT22;13410;52.114;5.718;2024-01-15T03:56:16;5.80;99.90
25504;DHT22;13410;52.114;5.718;2024-01-15T03:58:42;6.00;99.90
25504;DHT22;13410;52.114;5.718;2024-01-15T04:01:09;6.10;99.90
25504;DHT22;13410;52.114;5.718;2024-01-15T04:03:35;6.00;99.90
25504;DHT22;13410;52.114;5.718;2024-01-15T04:06:01;6.00;99.90
25504;DHT22;13410;52.114;5.718;2024-01-15T04:08:27;6.10;99.90
25504;DHT22;13410;52.114;5.718;2024-01-15T04:10:52;6.10;99.90
25504;DHT22;13410;52.114;5.718;2024-01-15T04:13:18;5.90;99.90
25504;DHT22;13410;52.114;5.718;2024-01-15T04:15:43;5.80;99.90
25504;DHT22;13410;52.114;5.718;2024-01-15T04:18:09;5.90;99.90
25504;DHT22;13410;52.114;5.718;2024-01-15T04:20:35;5.90;99.90
25504;DHT22;13410;52.114;5.718;2024-01-15T04:23:00;6.00;99.90
25504;DHT22;13410;52.114;5.718;2024-01-15T04:25:26;5.90;99.90
25504;DHT22;13410;52.114;5.718;2024-01-15T04:27:51;6.00;99.90
25504;DHT22;13410;52.114;5.718;2024-01-15T04:30:17;6.00;99.90
25504;DHT22;13410;52.114;5.718;2024-01-15T04:32:43;6.00;99.90
25504;DHT22;13410;52.114;5.718;2024-01-15T04:35:08;6.00;99.90
25504;DHT22;13410;52.114;5.718;2024-01-15T04:37:34;6.00;99.90
25504;DHT22;13410;52.114;5.718;2024-01-15T04:39:59;6.10;99.90
25504;DHT22;13410;52.114;5.718;2024-01-15T04:42:25;6.10;99.90
25504;DHT22;13410;52.114;5.718;2024-01-15T04:44:51;6.10;99.90
25504;DHT22;13410;52.114;5.718;2024-01-15T04:47:17;6.20;99.90
25504;DHT22;13410;52.114;5.718;2024-01-15T04:49:42;6.40;99.90
25504;DHT22;13410;52.114;5.718;2024-01-15T04:52:08;6.30;99.90
25504;DHT22;13410;52.114;5.718;2024-01-15T04:54:36;6.30;99.90
25504;DHT22;13410;52.114;5.718;2024-01-15T04:57:01;6.30;99.90
25504;DHT22;13410;52.114;5.718;2024-01-15T04:59:28;6.40;99.90
25504;DHT22;13410;52.114;5.718;2024-01-15T05:01:54;6.40;99.90
25504;DHT22;13410;52.114;5.718;2024-01-15T05:04:20;6.20;99.90
25504;DHT22;13410;52.114;5.718;2024-01-15T05:06:45;6.30;99.90
25504;DHT22;13410;52.114;5.718;2024-01-15T05:09:11;6.30;99.90
25504;DHT22;13410;52.114;5.718;2024-01-15T05:11:39;6.30;99.90
25504;DHT22;13410;52.114;5.718;2024-01-15T05:14:04;6.50;99.90
25504;DHT22;13410;52.114;5.718;2024-01-15T05:16:30;6.30;99.90
25504;DHT22;13410;52.114;5.718;2024-01-15T05:18:55;6.30;99.90
25504;DHT22;13410;52.114;5.718;2024-01-15T05:21:21;6.20;99.90
25504;DHT22;13410;52.114;5.718;2024-01-15T05:23:47;6.40;99.90
25504;DHT22;13410;52.114;5.718;2024-01-15T05:26:12;6.20;99.90
25504;DHT22;13410;52.114;5.718;2024-01-15T05:28:38;6.30;99.90
25504;DHT22;13410;52.114;5.718;2024-01-15T05:31:06;6.10;99.90
25504;DHT22;13410;52.114;5.718;2024-01-15T05:33:31;6.20;99.90
25504;DHT22;13410;52.114;5.718;2024-01-15T05:35:57;6.10;99.90
25504;DHT22;13410;52.114;5.718;2024-01-15T05:38:24;6.20;99.90
25504;DHT22;13410;52.114;5.718;2024-01-15T05:40:49;6.20;99.90
25504;DHT22;13410;52.114;5.718;2024-01-15T05:43:15;6.20;99.90
25504;DHT22;13410;52.114;5.718;2024-01-15T05:45:43;6.20;99.90
25504;DHT22;13410;52.114;5.718;2024-01-15T05:48:09;6.30;99.90
25504;DHT22;13410;52.114;5.718;2024-01-15T05:50:34;6.30;99.90
25504;DHT22;13410;52.114;5.718;2024-01-15T05:53:00;6.40;99.90
25504;DHT22;13410;52.114;5.718;2024-01-15T05:55:26;6.40;99.90
25504;DHT22;13410;52.114;5.718;2024-01-15T05:57:51;6.50;99.90
25504;DHT22;13410;52.114;5.718;2024-01-15T06:00:17;6.30;99.90
25504;DHT22;13410;52.114;5.718;2024-01-15T06:02:43;6.30;99.90
25504;DHT22;13410;52.114;5.718;2024-01-15T06:05:08;6.50;99.90
25504;DHT22;13410;52.114;5.718;2024-01-15T06:07:34;6.40;99.90
25504;DHT22;13410;52.114;5.718;2024-01-15T06:10:01;6.50;99.90
25504;DHT22;13410;52.114;5.718;2024-01-15T06:12:28;6.40;99.90
25504;DHT22;13410;52.114;5.718;2024-01-15T06:14:54;6.30;99.90
25504;DHT22;13410;52.114;5.718;2024-01-15T06:17:20;6.40;99.90
25504;DHT22;13410;52.114;5.718;2024-01-15T06:19:45;6.50;99.90
25504;DHT22;13410;52.114;5.718;2024-01-15T06:22:11;6.40;99.90
25504;DHT22;13410;52.114;5.718;2024-01-15T06:24:37;6.30;99.90
25504;DHT22;13410;52.114;5.718;2024-01-15T06:27:02;6.40;99.90
25504;DHT22;13410;52.114;5.718;2024-01-15T06:29:28;6.40;99.90
25504;DHT22;13410;52.114;5.718;2024-01-15T06:31:54;6.30;99.90
25504;DHT22;13410;52.114;5.718;2024-01-15T06:34:19;6.30;99.90
25504;DHT22;13410;52.114;5.718;2024-01-15T06:36:45;6.20;99.90
25504;DHT22;13410;52.114;5.718;2024-01-15T06:39:11;6.20;99.90
25504;DHT22;13410;52.114;5.718;2024-01-15T06:41:37;6.10;99.90
25504;DHT22;13410;52.114;5.718;2024-01-15T06:44:12;6.20;99.90
25504;DHT22;13410;52.114;5.718;2024-01-15T06:46:45;6.20;99.90
25504;DHT22;13410;52.114;5.718;2024-01-15T06:49:11;6.30;99.90
25504;DHT22;13410;52.114;5.718;2024-01-15T06:51:44;6.20;99.90
25504;DHT22;13410;52.114;5.718;2024-01-15T06:54:10;6.40;99.90
25504;DHT22;13410;52.114;5.718;2024-01-15T06:56:35;6.40;99.90
25504;DHT22;13410;52.114;5.718;2024-01-15T06:59:01;6.50;99.90
25504;DHT22;13410;52.114;5.718;2024-01-15T07:01:27;6.50;99.90
25504;DHT22;13410;52.114;5.718;2024-01-15T07:03:52;6.40;99.90
25504;DHT22;13410;52.114;5.718;2024-01-15T07:06:18;6.50;99.90
25504;DHT22;13410;52.114;5.718;2024-01-15T07:08:44;6.50;99.90
25504;DHT22;13410;52.114;5.718;2024-01-15T07:11:10;6.60;99.90
25504;DHT22;13410;52.114;5.718;2024-01-15T07:13:38;6.50;99.90
25504;DHT22;13410;52.114;5.718;2024-01-15T07:16:04;6.40;99.90
25504;DHT22;13410;52.114;5.718;2024-01-15T07:18:30;6.20;99.90
25504;DHT22;13410;52.114;5.718;2024-01-15T07:20:55;6.30;99.90
25504;DHT22;13410;52.114;5.718;2024-01-15T07:23:21;6.20;99.90
25504;DHT22;13410;52.114;5.718;2024-01-15T07:25:47;6.30;99.90
25504;DHT22;13410;52.114;5.718;2024-01-15T07:28:13;6.20;99.90
25504;DHT22;13410;52.114;5.718;2024-01-15T07:30:39;6.20;99.90
25504;DHT22;13410;52.114;5.718;2024-01-15T07:33:05;6.10;99.90
25504;DHT22;13410;52.114;5.718;2024-01-15T07:35:32;6.10;99.90
25504;DHT22;13410;52.114;5.718;2024-01-15T07:37:57;6.20;99.90
25504;DHT22;13410;52.114;5.718;2024-01-15T07:40:23;6.40;99.90
25504;DHT22;13410;52.114;5.718;2024-01-15T07:42:50;6.40;99.90
25504;DHT22;13410;52.114;5.718;2024-01-15T07:45:16;6.30;99.90
25504;DHT22;13410;52.114;5.718;2024-01-15T07:47:42;6.20;99.90
25504;DHT22;13410;52.114;5.718;2024-01-15T07:50:09;6.20;99.90
25504;DHT22;13410;52.114;5.718;2024-01-15T07:52:34;6.20;99.90
25504;DHT22;13410;52.114;5.718;2024-01-15T07:55:00;6.20;99.90
25504;DHT22;13410;52.114;5.718;2024-01-15T07:57:26;6.10;99.90
25504;DHT22;13410;52.114;5.718;2024-01-15T07:59:52;5.90;99.90
25504;DHT22;13410;52.114;5.718;2024-01-15T08:02:17;5.90;99.90
25504;DHT22;13410;52.114;5.718;2024-01-15T08:04:43;5.90;99.90
25504;DHT22;13410;52.114;5.718;2024-01-15T08:07:09;6.10;99.90
25504;DHT22;13410;52.114;5.718;2024-01-15T08:09:35;6.40;99.90
25504;DHT22;13410;52.114;5.718;2024-01-15T08:12:01;6.50;99.90
25504;DHT22;13410;52.114;5.718;2024-01-15T08:14:26;6.30;99.90
25504;DHT22;13410;52.114;5.718;2024-01-15T08:16:52;6.20;99.90
25504;DHT22;13410;52.114;5.718;2024-01-15T08:19:18;6.30;99.90
25504;DHT22;13410;52.114;5.718;2024-01-15T08:21:45;6.20;99.90
25504;DHT22;13410;52.114;5.718;2024-01-15T08:24:11;6.20;99.90
25504;DHT22;13410;52.114;5.718;2024-01-15T08:26:36;6.10;99.90
25504;DHT22;13410;52.114;5.718;2024-01-15T08:29:02;6.30;99.90
25504;DHT22;13410;52.114;5.718;2024-01-15T08:31:28;6.30;99.90
25504;DHT22;13410;52.114;5.718;2024-01-15T08:33:53;6.30;99.90
25504;DHT22;13410;52.114;5.718;2024-01-15T08:36:19;6.30;99.90
25504;DHT22;13410;52.114;5.718;2024-01-15T08:38:45;6.20;99.90
25504;DHT22;13410;52.114;5.718;2024-01-15T08:41:10;6.30;99.90
25504;DHT22;13410;52.114;5.718;2024-01-15T08:43:36;6.40;99.90
25504;DHT22;13410;52.114;5.718;2024-01-15T08:46:02;6.50;99.90
25504;DHT22;13410;52.114;5.718;2024-01-15T08:48:29;6.40;99.90
25504;DHT22;13410;52.114;5.718;2024-01-15T08:50:55;6.50;99.90
25504;DHT22;13410;52.114;5.718;2024-01-15T08:53:21;6.40;99.90
25504;DHT22;13410;52.114;5.718;2024-01-15T08:55:46;6.30;99.90
25504;DHT22;13410;52.114;5.718;2024-01-15T08:58:13;6.30;99.90
25504;DHT22;13410;52.114;5.718;2024-01-15T09:00:38;6.40;99.90
25504;DHT22;13410;52.114;5.718;2024-01-15T09:03:04;6.40;99.90
25504;DHT22;13410;52.114;5.718;2024-01-15T09:05:30;6.30;99.90
25504;DHT22;13410;52.114;5.718;2024-01-15T09:07:56;6.30;99.90
25504;DHT22;13410;52.114;5.718;2024-01-15T09:10:21;6.20;99.90
25504;DHT22;13410;52.114;5.718;2024-01-15T09:12:47;6.10;99.90
25504;DHT22;13410;52.114;5.718;2024-01-15T09:15:14;6.20;99.90
25504;DHT22;13410;52.114;5.718;2024-01-15T09:17:40;6.00;99.90
25504;DHT22;13410;52.114;5.718;2024-01-15T09:20:06;6.30;99.90
25504;DHT22;13410;52.114;5.718;2024-01-15T09:22:32;6.30;99.90
25504;DHT22;13410;52.114;5.718;2024-01-15T09:24:58;6.30;99.90
25504;DHT22;13410;52.114;5.718;2024-01-15T09:27:25;6.50;99.90
25504;DHT22;13410;52.114;5.718;2024-01-15T09:29:52;6.70;99.90
25504;DHT22;13410;52.114;5.718;2024-01-15T09:32:18;6.70;99.90
25504;DHT22;13410;52.114;5.718;2024-01-15T09:34:44;6.80;99.90
25504;DHT22;13410;52.114;5.718;2024-01-15T09:37:11;6.80;99.90
25504;DHT22;13410;52.114;5.718;2024-01-15T09:39:37;6.80;99.90
25504;DHT22;13410;52.114;5.718;2024-01-15T09:42:03;6.90;99.90
25504;DHT22;13410;52.114;5.718;2024-01-15T09:44:29;7.00;99.90
25504;DHT22;13410;52.114;5.718;2024-01-15T09:46:56;7.30;99.90
25504;DHT22;13410;52.114;5.718;2024-01-15T09:49:22;7.30;99.90
25504;DHT22;13410;52.114;5.718;2024-01-15T09:51:48;7.50;99.90
25504;DHT22;13410;52.114;5.718;2024-01-15T09:54:14;7.20;99.90
25504;DHT22;13410;52.114;5.718;2024-01-15T09:56:46;7.10;99.90
25504;DHT22;13410;52.114;5.718;2024-01-15T09:59:21;7.00;99.90
25504;DHT22;13410;52.114;5.718;2024-01-15T10:01:49;6.90;99.90
25504;DHT22;13410;52.114;5.718;2024-01-15T10:04:15;7.00;99.90
25504;DHT22;13410;52.114;5.718;2024-01-15T10:06:47;7.30;99.90
25504;DHT22;13410;52.114;5.718;2024-01-15T10:09:16;7.60;99.90
25504;DHT22;13410;52.114;5.718;2024-01-15T10:11:43;7.70;99.90
25504;DHT22;13410;52.114;5.718;2024-01-15T10:14:10;7.50;99.90
25504;DHT22;13410;52.114;5.718;2024-01-15T10:16:41;7.30;99.90
25504;DHT22;13410;52.114;5.718;2024-01-15T10:19:08;7.10;99.90
25504;DHT22;13410;52.114;5.718;2024-01-15T10:21:34;6.90;99.90
25504;DHT22;13410;52.114;5.718;2024-01-15T10:24:00;7.00;99.90
25504;DHT22;13410;52.114;5.718;2024-01-15T10:26:27;6.90;99.90
25504;DHT22;13410;52.114;5.718;2024-01-15T10:28:52;7.00;99.90
25504;DHT22;13410;52.114;5.718;2024-01-15T10:31:18;7.20;99.90
25504;DHT22;13410;52.114;5.718;2024-01-15T10:33:45;7.30;99.90
25504;DHT22;13410;52.114;5.718;2024-01-15T10:36:10;7.40;99.90
25504;DHT22;13410;52.114;5.718;2024-01-15T10:38:36;7.40;99.90
25504;DHT22;13410;52.114;5.718;2024-01-15T10:41:02;7.40;99.90
25504;DHT22;13410;52.114;5.718;2024-01-15T10:43:28;7.50;99.90
25504;DHT22;13410;52.114;5.718;2024-01-15T10:45:53;7.50;99.90
25504;DHT22;13410;52.114;5.718;2024-01-15T10:48:19;7.50;99.90
25504;DHT22;13410;52.114;5.718;2024-01-15T10:50:46;7.40;99.90
25504;DHT22;13410;52.114;5.718;2024-01-15T10:53:14;7.20;99.90
25504;DHT22;13410;52.114;5.718;2024-01-15T10:55:41;7.00;99.90
25504;DHT22;13410;52.114;5.718;2024-01-15T10:58:08;6.80;99.90
25504;DHT22;13410;52.114;5.718;2024-01-15T11:00:37;7.00;99.90
25504;DHT22;13410;52.114;5.718;2024-01-15T11:03:05;6.80;99.90
25504;DHT22;13410;52.114;5.718;2024-01-15T11:05:57;6.70;99.90
25504;DHT22;13410;52.114;5.718;2024-01-15T11:08:24;6.80;99.90
25504;DHT22;13410;52.114;5.718;2024-01-15T11:10:51;7.00;99.90
25504;DHT22;13410;52.114;5.718;2024-01-15T11:16:03;7.10;99.90
25504;DHT22;13410;52.114;5.718;2024-01-15T11:19:14;7.10;99.90
25504;DHT22;13410;52.114;5.718;2024-01-15T11:23:42;7.50;99.90
25504;DHT22;13410;52.114;5.718;2024-01-15T11:26:36;7.40;99.90
25504;DHT22;13410;52.114;5.718;2024-01-15T11:29:05;7.50;99.90
25504;DHT22;13410;52.114;5.718;2024-01-15T11:34:10;7.40;99.90
25504;DHT22;13410;52.114;5.718;2024-01-15T11:41:57;7.60;99.90
25504;DHT22;13410;52.114;5.718;2024-01-15T11:44:23;7.50;99.90
25504;DHT22;13410;52.114;5.718;2024-01-15T11:47:01;7.60;99.90
25504;DHT22;13410;52.114;5.718;2024-01-15T11:52:12;7.50;99.90
25504;DHT22;13410;52.114;5.718;2024-01-15T11:54:42;7.60;99.90
25504;DHT22;13410;52.114;5.718;2024-01-15T11:57:18;7.40;99.90
25504;DHT22;13410;52.114;5.718;2024-01-15T11:59:47;7.70;99.90
25504;DHT22;13410;52.114;5.718;2024-01-15T12:02:13;7.80;99.90
25504;DHT22;13410;52.114;5.718;2024-01-15T12:04:40;7.90;99.90
25504;DHT22;13410;52.114;5.718;2024-01-15T12:07:05;8.00;99.90
25504;DHT22;13410;52.114;5.718;2024-01-15T12:09:31;8.00;99.90
25504;DHT22;13410;52.114;5.718;2024-01-15T12:12:06;7.90;99.90
25504;DHT22;13410;52.114;5.718;2024-01-15T12:14:34;8.00;99.90
25504;DHT22;13410;52.114;5.718;2024-01-15T12:17:03;8.10;99.90
25504;DHT22;13410;52.114;5.718;2024-01-15T12:19:32;8.10;99.90
25504;DHT22;13410;52.114;5.718;2024-01-15T12:21:58;7.90;99.90
25504;DHT22;13410;52.114;5.718;2024-01-15T12:24:23;7.60;99.90
25504;DHT22;13410;52.114;5.718;2024-01-15T12:26:49;7.10;99.90
25504;DHT22;13410;52.114;5.718;2024-01-15T12:29:17;5.90;99.90
25504;DHT22;13410;52.114;5.718;2024-01-15T12:31:46;5.40;99.90
25504;DHT22;13410;52.114;5.718;2024-01-15T12:34:11;5.00;99.90
25504;DHT22;13410;52.114;5.718;2024-01-15T12:36:37;5.30;99.90
25504;DHT22;13410;52.114;5.718;2024-01-15T12:39:03;5.50;99.90
25504;DHT22;13410;52.114;5.718;2024-01-15T12:41:28;6.00;99.90
25504;DHT22;13410;52.114;5.718;2024-01-15T12:43:54;6.30;99.90
25504;DHT22;13410;52.114;5.718;2024-01-15T12:46:20;6.60;99.90
25504;DHT22;13410;52.114;5.718;2024-01-15T12:48:45;6.80;99.90
25504;DHT22;13410;52.114;5.718;2024-01-15T12:51:11;7.10;99.90
25504;DHT22;13410;52.114;5.718;2024-01-15T12:53:37;7.20;99.90
25504;DHT22;13410;52.114;5.718;2024-01-15T12:56:03;7.30;99.90
25504;DHT22;13410;52.114;5.718;2024-01-15T12:58:28;7.40;99.90
25504;DHT22;13410;52.114;5.718;2024-01-15T13:00:54;7.40;99.90
25504;DHT22;13410;52.114;5.718;2024-01-15T13:03:19;7.10;99.90
25504;DHT22;13410;52.114;5.718;2024-01-15T13:05:45;7.10;99.90
25504;DHT22;13410;52.114;5.718;2024-01-15T13:08:11;7.00;99.90
25504;DHT22;13410;52.114;5.718;2024-01-15T13:10:37;7.00;99.90
25504;DHT22;13410;52.114;5.718;2024-01-15T13:13:03;6.90;99.90
25504;DHT22;13410;52.114;5.718;2024-01-15T13:15:29;6.90;99.90
25504;DHT22;13410;52.114;5.718;2024-01-15T13:17:54;6.90;99.90
25504;DHT22;13410;52.114;5.718;2024-01-15T13:20:21;7.00;99.90
25504;DHT22;13410;52.114;5.718;2024-01-15T13:22:47;7.10;99.90
25504;DHT22;13410;52.114;5.718;2024-01-15T13:25:13;7.10;99.90
25504;DHT22;13410;52.114;5.718;2024-01-15T13:27:39;7.10;99.90
25504;DHT22;13410;52.114;5.718;2024-01-15T13:30:05;7.10;99.90
25504;DHT22;13410;52.114;5.718;2024-01-15T13:32:32;7.00;99.90
25504;DHT22;13410;52.114;5.718;2024-01-15T13:34:59;7.10;99.90
25504;DHT22;13410;52.114;5.718;2024-01-15T13:37:25;7.10;99.90
25504;DHT22;13410;52.114;5.718;2024-01-15T13:39:51;7.10;99.90
25504;DHT22;13410;52.114;5.718;2024-01-15T13:42:20;7.10;99.90
25504;DHT22;13410;52.114;5.718;2024-01-15T13:44:48;7.10;99.90
25504;DHT22;13410;52.114;5.718;2024-01-15T13:47:14;6.90;99.90
25504;DHT22;13410;52.114;5.718;2024-01-15T13:49:39;6.90;99.90
25504;DHT22;13410;52.114;5.718;2024-01-15T13:52:05;6.80;99.90
25504;DHT22;13410;52.114;5.718;2024-01-15T13:54:31;7.00;99.90
25504;DHT22;13410;52.114;5.718;2024-01-15T13:56:57;7.30;99.90
25504;DHT22;13410;52.114;5.718;2024-01-15T13:59:24;7.30;99.90
25504;DHT22;13410;52.114;5.718;2024-01-15T14:01:50;7.40;99.90
25504;DHT22;13410;52.114;5.718;2024-01-15T14:04:15;7.50;99.90
25504;DHT22;13410;52.114;5.718;2024-01-15T14:06:41;7.50;99.90
25504;DHT22;13410;52.114;5.718;2024-01-15T14:09:07;7.60;99.90
25504;DHT22;13410;52.114;5.718;2024-01-15T14:11:36;7.50;99.90
25504;DHT22;13410;52.114;5.718;2024-01-15T14:14:02;6.10;99.90
25504;DHT22;13410;52.114;5.718;2024-01-15T14:16:28;5.50;99.90
25504;DHT22;13410;52.114;5.718;2024-01-15T14:18:53;5.40;99.90
25504;DHT22;13410;52.114;5.718;2024-01-15T14:21:19;5.40;99.90
25504;DHT22;13410;52.114;5.718;2024-01-15T14:23:44;5.00;99.90
25504;DHT22;13410;52.114;5.718;2024-01-15T14:26:10;4.90;99.90
25504;DHT22;13410;52.114;5.718;2024-01-15T14:28:36;5.40;99.90
25504;DHT22;13410;52.114;5.718;2024-01-15T14:31:01;5.70;99.90
25504;DHT22;13410;52.114;5.718;2024-01-15T14:33:28;5.90;99.90
25504;DHT22;13410;52.114;5.718;2024-01-15T14:35:53;6.10;99.90
25504;DHT22;13410;52.114;5.718;2024-01-15T14:38:19;6.40;99.90
25504;DHT22;13410;52.114;5.718;2024-01-15T14:40:45;6.70;99.90
25504;DHT22;13410;52.114;5.718;2024-01-15T14:43:10;6.70;99.90
25504;DHT22;13410;52.114;5.718;2024-01-15T14:45:36;7.00;99.90
25504;DHT22;13410;52.114;5.718;2024-01-15T14:48:02;7.20;99.90
25504;DHT22;13410;52.114;5.718;2024-01-15T14:50:28;7.50;99.90
25504;DHT22;13410;52.114;5.718;2024-01-15T14:52:54;7.80;99.90
25504;DHT22;13410;52.114;5.718;2024-01-15T14:55:20;7.90;99.90
25504;DHT22;13410;52.114;5.718;2024-01-15T14:57:48;8.20;99.90
25504;DHT22;13410;52.114;5.718;2024-01-15T15:00:14;8.00;99.90
25504;DHT22;13410;52.114;5.718;2024-01-15T15:02:42;7.90;99.90
25504;DHT22;13410;52.114;5.718;2024-01-15T15:05:09;7.60;99.90
25504;DHT22;13410;52.114;5.718;2024-01-15T15:07:36;7.20;99.90
25504;DHT22;13410;52.114;5.718;2024-01-15T15:10:02;6.70;99.90
25504;DHT22;13410;52.114;5.718;2024-01-15T15:12:30;6.60;99.90
25504;DHT22;13410;52.114;5.718;2024-01-15T15:14:56;6.80;99.90
25504;DHT22;13410;52.114;5.718;2024-01-15T15:17:21;6.90;99.90
25504;DHT22;13410;52.114;5.718;2024-01-15T15:19:47;6.90;99.90
25504;DHT22;13410;52.114;5.718;2024-01-15T15:22:13;7.00;99.90
25504;DHT22;13410;52.114;5.718;2024-01-15T15:24:39;7.00;99.90
25504;DHT22;13410;52.114;5.718;2024-01-15T15:27:05;7.10;99.90
25504;DHT22;13410;52.114;5.718;2024-01-15T15:29:32;7.20;99.90
25504;DHT22;13410;52.114;5.718;2024-01-15T15:31:57;7.30;99.90
25504;DHT22;13410;52.114;5.718;2024-01-15T15:34:23;7.10;99.90
25504;DHT22;13410;52.114;5.718;2024-01-15T15:36:49;7.00;99.90
25504;DHT22;13410;52.114;5.718;2024-01-15T15:39:14;7.20;99.90
25504;DHT22;13410;52.114;5.718;2024-01-15T15:41:44;6.90;99.90
25504;DHT22;13410;52.114;5.718;2024-01-15T15:44:10;6.80;99.90
25504;DHT22;13410;52.114;5.718;2024-01-15T15:46:38;6.80;99.90
25504;DHT22;13410;52.114;5.718;2024-01-15T15:49:04;6.70;99.90
25504;DHT22;13410;52.114;5.718;2024-01-15T15:51:32;6.70;99.90
25504;DHT22;13410;52.114;5.718;2024-01-15T15:53:58;6.70;99.90